sensor_id;sensor_type;location;lat;lon;timestamp;P1;durP1;ratioP1;P2;durP2;ratioP2
70733;SDS011;58320;48.804;9.252;2023-12-28T00:00:07;5.40;;;2.97;;
70733;SDS011;58320;48.804;9.252;2023-12-28T00:02:33;5.23;;;2.80;;
70733;SDS011;58320;48.804;9.252;2023-12-28T00:04:59;5.13;;;3.05;;
70733;SDS011;58320;48.804;9.252;2023-12-28T00:07:25;4.93;;;2.70;;
70733;SDS011;58320;48.804;9.252;2023-12-28T00:09:50;6.72;;;3.17;;
70733;SDS011;58320;48.804;9.252;2023-12-28T00:12:16;5.27;;;3.03;;
70733;SDS011;58320;48.804;9.252;2023-12-28T00:14:42;7.13;;;3.20;;
70733;SDS011;58320;48.804;9.252;2023-12-28T00:17:07;5.90;;;3.03;;
70733;SDS011;58320;48.804;9.252;2023-12-28T00:19:33;6.38;;;2.90;;
70733;SDS011;58320;48.804;9.252;2023-12-28T00:21:59;5.63;;;3.50;;
70733;SDS011;58320;48.804;9.252;2023-12-28T00:24:24;6.50;;;3.38;;
70733;SDS011;58320;48.804;9.252;2023-12-28T00:26:50;6.27;;;3.47;;
70733;SDS011;58320;48.804;9.252;2023-12-28T00:29:16;6.03;;;3.33;;
70733;SDS011;58320;48.804;9.252;2023-12-28T00:31:41;6.20;;;3.67;;
70733;SDS011;58320;48.804;9.252;2023-12-28T00:34:07;7.00;;;3.70;;
70733;SDS011;58320;48.804;9.252;2023-12-28T00:36:33;6.77;;;3.87;;
70733;SDS011;58320;48.804;9.252;2023-12-28T00:38:58;6.75;;;3.03;;
70733;SDS011;58320;48.804;9.252;2023-12-28T00:41:24;6.60;;;3.57;;
70733;SDS011;58320;48.804;9.252;2023-12-28T00:43:50;6.45;;;2.97;;
70733;SDS011;58320;48.804;9.252;2023-12-28T00:46:15;5.70;;;3.33;;
70733;SDS011;58320;48.804;9.252;2023-12-28T00:48:41;7.15;;;3.20;;
70733;SDS011;58320;48.804;9.252;2023-12-28T00:51:07;5.40;;;3.33;;
70733;SDS011;58320;48.804;9.252;2023-12-28T00:53:32;6.10;;;3.42;;
70733;SDS011;58320;48.804;9.252;2023-12-28T00:55:58;6.07;;;2.78;;
70733;SDS011;58320;48.804;9.252;2023-12-28T00:58:24;6.10;;;3.50;;
70733;SDS011;58320;48.804;9.252;2023-12-28T01:00:50;5.10;;;2.80;;
70733;SDS011;58320;48.804;9.252;2023-12-28T01:03:18;6.17;;;3.40;;
70733;SDS011;58320;48.804;9.252;2023-12-28T01:05:45;7.65;;;3.50;;
70733;SDS011;58320;48.804;9.252;2023-12-28T01:08:12;5.07;;;2.75;;
70733;SDS011;58320;48.804;9.252;2023-12-28T01:10:38;4.97;;;2.65;;
70733;SDS011;58320;48.804;9.252;2023-12-28T01:13:04;6.27;;;3.30;;
70733;SDS011;58320;48.804;9.252;2023-12-28T01:15:29;5.57;;;3.05;;
70733;SDS011;58320;48.804;9.252;2023-12-28T01:17:55;5.33;;;2.83;;
70733;SDS011;58320;48.804;9.252;2023-12-28T01:20:21;5.75;;;3.05;;
70733;SDS011;58320;48.804;9.252;2023-12-28T01:22:47;5.82;;;2.85;;
70733;SDS011;58320;48.804;9.252;2023-12-28T01:25:15;5.90;;;3.47;;
70733;SDS011;58320;48.804;9.252;2023-12-28T01:27:41;6.70;;;4.10;;
70733;SDS011;58320;48.804;9.252;2023-12-28T01:30:07;6.03;;;3.50;;
70733;SDS011;58320;48.804;9.252;2023-12-28T01:32:33;7.97;;;3.85;;
70733;SDS011;58320;48.804;9.252;2023-12-28T01:34:58;5.97;;;3.73;;
70733;SDS011;58320;48.804;9.252;2023-12-28T01:37:24;8.20;;;3.70;;
70733;SDS011;58320;48.804;9.252;2023-12-28T01:39:50;6.27;;;3.77;;
70733;SDS011;58320;48.804;9.252;2023-12-28T01:42:16;5.97;;;3.50;;
70733;SDS011;58320;48.804;9.252;2023-12-28T01:44:41;8.63;;;3.97;;
70733;SDS011;58320;48.804;9.252;2023-12-28T01:47:07;7.00;;;3.80;;
70733;SDS011;58320;48.804;9.252;2023-12-28T01:49:33;6.88;;;3.95;;
70733;SDS011;58320;48.804;9.252;2023-12-28T01:52:00;7.32;;;3.90;;
70733;SDS011;58320;48.804;9.252;2023-12-28T01:54:27;6.83;;;4.03;;
70733;SDS011;58320;48.804;9.252;2023-12-28T01:56:54;5.63;;;3.30;;
70733;SDS011;58320;48.804;9.252;2023-12-28T01:59:20;6.78;;;3.60;;
70733;SDS011;58320;48.804;9.252;2023-12-28T02:01:46;7.53;;;4.25;;
70733;SDS011;58320;48.804;9.252;2023-12-28T02:04:12;7.50;;;3.92;;
70733;SDS011;58320;48.804;9.252;2023-12-28T02:06:38;7.80;;;4.07;;
70733;SDS011;58320;48.804;9.252;2023-12-28T02:09:04;6.80;;;4.03;;
70733;SDS011;58320;48.804;9.252;2023-12-28T02:11:30;8.00;;;4.82;;
70733;SDS011;58320;48.804;9.252;2023-12-28T02:13:55;8.27;;;4.60;;
70733;SDS011;58320;48.804;9.252;2023-12-28T02:16:25;7.57;;;4.60;;
70733;SDS011;58320;48.804;9.252;2023-12-28T02:18:58;8.95;;;4.40;;
70733;SDS011;58320;48.804;9.252;2023-12-28T02:21:32;9.07;;;4.90;;
70733;SDS011;58320;48.804;9.252;2023-12-28T02:23:59;9.03;;;5.07;;
70733;SDS011;58320;48.804;9.252;2023-12-28T02:26:24;6.93;;;4.90;;
70733;SDS011;58320;48.804;9.252;2023-12-28T02:28:50;7.50;;;4.30;;
70733;SDS011;58320;48.804;9.252;2023-12-28T02:31:21;8.93;;;4.95;;
70733;SDS011;58320;48.804;9.252;2023-12-28T02:34:16;8.30;;;5.15;;
70733;SDS011;58320;48.804;9.252;2023-12-28T02:36:44;10.03;;;4.73;;
70733;SDS011;58320;48.804;9.252;2023-12-28T02:39:13;7.40;;;4.30;;
70733;SDS011;58320;48.804;9.252;2023-12-28T02:41:40;7.63;;;5.05;;
70733;SDS011;58320;48.804;9.252;2023-12-28T02:44:08;8.82;;;4.68;;
70733;SDS011;58320;48.804;9.252;2023-12-28T02:46:33;7.90;;;4.50;;
70733;SDS011;58320;48.804;9.252;2023-12-28T02:48:59;7.72;;;4.00;;
70733;SDS011;58320;48.804;9.252;2023-12-28T02:51:25;9.10;;;4.63;;
70733;SDS011;58320;48.804;9.252;2023-12-28T02:53:51;9.45;;;4.57;;
70733;SDS011;58320;48.804;9.252;2023-12-28T02:56:16;7.88;;;4.60;;
70733;SDS011;58320;48.804;9.252;2023-12-28T02:58:42;6.80;;;3.97;;
70733;SDS011;58320;48.804;9.252;2023-12-28T03:01:08;8.07;;;4.20;;
70733;SDS011;58320;48.804;9.252;2023-12-28T03:03:33;7.03;;;3.97;;
70733;SDS011;58320;48.804;9.252;2023-12-28T03:05:59;6.45;;;3.97;;
70733;SDS011;58320;48.804;9.252;2023-12-28T03:08:25;7.15;;;3.90;;
70733;SDS011;58320;48.804;9.252;2023-12-28T03:10:51;5.27;;;3.10;;
70733;SDS011;58320;48.804;9.252;2023-12-28T03:13:17;6.05;;;3.47;;
70733;SDS011;58320;48.804;9.252;2023-12-28T03:15:43;7.47;;;3.83;;
70733;SDS011;58320;48.804;9.252;2023-12-28T03:18:09;6.70;;;3.75;;
70733;SDS011;58320;48.804;9.252;2023-12-28T03:20:35;8.13;;;3.80;;
70733;SDS011;58320;48.804;9.252;2023-12-28T03:23:00;7.43;;;4.28;;
70733;SDS011;58320;48.804;9.252;2023-12-28T03:25:26;7.00;;;4.37;;
70733;SDS011;58320;48.804;9.252;2023-12-28T03:27:52;7.18;;;3.97;;
70733;SDS011;58320;48.804;9.252;2023-12-28T03:30:19;8.30;;;4.28;;
70733;SDS011;58320;48.804;9.252;2023-12-28T03:32:45;9.97;;;5.00;;
70733;SDS011;58320;48.804;9.252;2023-12-28T03:35:11;9.82;;;4.32;;
70733;SDS011;58320;48.804;9.252;2023-12-28T03:37:37;11.30;;;4.43;;
70733;SDS011;58320;48.804;9.252;2023-12-28T03:40:03;6.97;;;3.80;;
70733;SDS011;58320;48.804;9.252;2023-12-28T03:42:29;7.65;;;3.45;;
70733;SDS011;58320;48.804;9.252;2023-12-28T03:44:55;6.20;;;3.40;;
70733;SDS011;58320;48.804;9.252;2023-12-28T03:47:21;7.45;;;3.20;;
70733;SDS011;58320;48.804;9.252;2023-12-28T03:49:48;5.50;;;3.20;;
70733;SDS011;58320;48.804;9.252;2023-12-28T03:52:13;5.80;;;3.17;;
70733;SDS011;58320;48.804;9.252;2023-12-28T03:54:39;4.88;;;2.85;;
70733;SDS011;58320;48.804;9.252;2023-12-28T03:57:05;7.00;;;2.97;;
70733;SDS011;58320;48.804;9.252;2023-12-28T03:59:30;5.93;;;3.50;;
70733;SDS011;58320;48.804;9.252;2023-12-28T04:03:37;6.00;;;3.92;;
70733;SDS011;58320;48.804;9.252;2023-12-28T04:06:02;4.68;;;2.58;;
70733;SDS011;58320;48.804;9.252;2023-12-28T04:08:28;5.63;;;3.00;;
70733;SDS011;58320;48.804;9.252;2023-12-28T04:10:54;6.55;;;2.60;;
70733;SDS011;58320;48.804;9.252;2023-12-28T04:13:20;6.05;;;2.63;;
70733;SDS011;58320;48.804;9.252;2023-12-28T04:15:46;4.53;;;2.23;;
70733;SDS011;58320;48.804;9.252;2023-12-28T04:18:11;4.43;;;2.63;;
70733;SDS011;58320;48.804;9.252;2023-12-28T04:20:37;4.03;;;2.30;;
70733;SDS011;58320;48.804;9.252;2023-12-28T04:23:03;4.35;;;2.50;;
70733;SDS011;58320;48.804;9.252;2023-12-28T04:25:28;5.80;;;3.20;;
70733;SDS011;58320;48.804;9.252;2023-12-28T04:27:54;6.57;;;3.30;;
70733;SDS011;58320;48.804;9.252;2023-12-28T04:30:20;6.67;;;3.87;;
70733;SDS011;58320;48.804;9.252;2023-12-28T04:32:45;6.85;;;3.42;;
70733;SDS011;58320;48.804;9.252;2023-12-28T04:35:12;6.72;;;4.57;;
70733;SDS011;58320;48.804;9.252;2023-12-28T04:37:37;8.40;;;4.03;;
70733;SDS011;58320;48.804;9.252;2023-12-28T04:40:03;8.77;;;4.28;;
70733;SDS011;58320;48.804;9.252;2023-12-28T04:42:29;8.40;;;4.32;;
70733;SDS011;58320;48.804;9.252;2023-12-28T04:44:55;7.40;;;4.30;;
70733;SDS011;58320;48.804;9.252;2023-12-28T04:47:21;6.88;;;4.03;;
70733;SDS011;58320;48.804;9.252;2023-12-28T04:49:46;5.67;;;3.10;;
70733;SDS011;58320;48.804;9.252;2023-12-28T04:52:12;6.05;;;2.88;;
70733;SDS011;58320;48.804;9.252;2023-12-28T04:54:40;6.30;;;3.17;;
70733;SDS011;58320;48.804;9.252;2023-12-28T04:57:06;4.68;;;2.53;;
70733;SDS011;58320;48.804;9.252;2023-12-28T04:59:38;7.22;;;3.30;;
70733;SDS011;58320;48.804;9.252;2023-12-28T05:02:04;4.83;;;2.40;;
70733;SDS011;58320;48.804;9.252;2023-12-28T05:04:30;7.63;;;3.17;;
70733;SDS011;58320;48.804;9.252;2023-12-28T05:06:56;4.87;;;2.60;;
70733;SDS011;58320;48.804;9.252;2023-12-28T05:09:21;7.57;;;3.78;;
70733;SDS011;58320;48.804;9.252;2023-12-28T05:11:47;6.33;;;3.30;;
70733;SDS011;58320;48.804;9.252;2023-12-28T05:14:13;8.63;;;3.80;;
70733;SDS011;58320;48.804;9.252;2023-12-28T05:16:38;6.63;;;3.63;;
70733;SDS011;58320;48.804;9.252;2023-12-28T05:19:04;6.00;;;3.50;;
70733;SDS011;58320;48.804;9.252;2023-12-28T05:21:30;7.03;;;3.70;;
70733;SDS011;58320;48.804;9.252;2023-12-28T05:23:55;6.13;;;3.73;;
70733;SDS011;58320;48.804;9.252;2023-12-28T05:26:21;5.50;;;3.30;;
70733;SDS011;58320;48.804;9.252;2023-12-28T05:28:48;6.23;;;3.37;;
70733;SDS011;58320;48.804;9.252;2023-12-28T05:31:14;5.53;;;2.72;;
70733;SDS011;58320;48.804;9.252;2023-12-28T05:33:39;6.63;;;3.20;;
70733;SDS011;58320;48.804;9.252;2023-12-28T05:36:05;5.50;;;2.80;;
70733;SDS011;58320;48.804;9.252;2023-12-28T05:38:31;5.43;;;2.90;;
70733;SDS011;58320;48.804;9.252;2023-12-28T05:40:58;5.43;;;2.60;;
70733;SDS011;58320;48.804;9.252;2023-12-28T05:43:24;4.70;;;2.35;;
70733;SDS011;58320;48.804;9.252;2023-12-28T05:45:50;6.50;;;3.07;;
70733;SDS011;58320;48.804;9.252;2023-12-28T05:48:16;5.32;;;2.90;;
70733;SDS011;58320;48.804;9.252;2023-12-28T05:50:41;5.97;;;2.40;;
70733;SDS011;58320;48.804;9.252;2023-12-28T05:53:07;6.38;;;2.40;;
70733;SDS011;58320;48.804;9.252;2023-12-28T05:55:38;5.77;;;2.77;;
70733;SDS011;58320;48.804;9.252;2023-12-28T05:58:08;4.90;;;2.60;;
70733;SDS011;58320;48.804;9.252;2023-12-28T06:00:36;6.82;;;3.30;;
70733;SDS011;58320;48.804;9.252;2023-12-28T06:03:03;5.45;;;3.00;;
70733;SDS011;58320;48.804;9.252;2023-12-28T06:05:30;5.32;;;2.90;;
70733;SDS011;58320;48.804;9.252;2023-12-28T06:07:56;6.43;;;2.77;;
70733;SDS011;58320;48.804;9.252;2023-12-28T06:10:22;4.65;;;2.55;;
70733;SDS011;58320;48.804;9.252;2023-12-28T06:12:49;6.50;;;2.50;;
70733;SDS011;58320;48.804;9.252;2023-12-28T06:15:15;5.63;;;2.60;;
70733;SDS011;58320;48.804;9.252;2023-12-28T06:17:41;8.03;;;2.70;;
70733;SDS011;58320;48.804;9.252;2023-12-28T06:20:06;4.57;;;2.60;;
70733;SDS011;58320;48.804;9.252;2023-12-28T06:22:33;5.32;;;2.50;;
70733;SDS011;58320;48.804;9.252;2023-12-28T06:25:02;6.97;;;2.25;;
70733;SDS011;58320;48.804;9.252;2023-12-28T06:27:28;7.20;;;2.83;;
70733;SDS011;58320;48.804;9.252;2023-12-28T06:29:54;5.37;;;2.80;;
70733;SDS011;58320;48.804;9.252;2023-12-28T06:32:20;5.93;;;2.63;;
70733;SDS011;58320;48.804;9.252;2023-12-28T06:34:46;5.10;;;2.33;;
70733;SDS011;58320;48.804;9.252;2023-12-28T06:37:12;6.43;;;2.40;;
70733;SDS011;58320;48.804;9.252;2023-12-28T06:39:38;4.18;;;2.28;;
70733;SDS011;58320;48.804;9.252;2023-12-28T06:42:04;4.50;;;2.30;;
70733;SDS011;58320;48.804;9.252;2023-12-28T06:44:30;5.18;;;2.53;;
70733;SDS011;58320;48.804;9.252;2023-12-28T06:46:55;4.90;;;2.30;;
70733;SDS011;58320;48.804;9.252;2023-12-28T06:49:21;3.93;;;2.30;;
70733;SDS011;58320;48.804;9.252;2023-12-28T06:51:47;4.82;;;2.45;;
70733;SDS011;58320;48.804;9.252;2023-12-28T06:54:13;4.07;;;2.20;;
70733;SDS011;58320;48.804;9.252;2023-12-28T06:56:40;3.97;;;2.13;;
70733;SDS011;58320;48.804;9.252;2023-12-28T06:59:05;4.47;;;2.33;;
70733;SDS011;58320;48.804;9.252;2023-12-28T07:01:31;4.47;;;1.97;;
70733;SDS011;58320;48.804;9.252;2023-12-28T07:03:57;6.13;;;2.05;;
70733;SDS011;58320;48.804;9.252;2023-12-28T07:06:24;5.10;;;2.50;;
70733;SDS011;58320;48.804;9.252;2023-12-28T07:08:50;4.83;;;2.40;;
70733;SDS011;58320;48.804;9.252;2023-12-28T07:11:16;3.90;;;2.05;;
70733;SDS011;58320;48.804;9.252;2023-12-28T07:13:41;4.93;;;2.17;;
70733;SDS011;58320;48.804;9.252;2023-12-28T07:16:07;4.37;;;2.10;;
70733;SDS011;58320;48.804;9.252;2023-12-28T07:18:33;3.72;;;2.13;;
70733;SDS011;58320;48.804;9.252;2023-12-28T07:20:59;5.67;;;2.10;;
70733;SDS011;58320;48.804;9.252;2023-12-28T07:23:25;5.22;;;2.00;;
70733;SDS011;58320;48.804;9.252;2023-12-28T07:25:52;4.82;;;2.05;;
70733;SDS011;58320;48.804;9.252;2023-12-28T07:28:17;4.88;;;1.80;;
70733;SDS011;58320;48.804;9.252;2023-12-28T07:30:43;4.53;;;2.30;;
70733;SDS011;58320;48.804;9.252;2023-12-28T07:33:09;3.60;;;1.88;;
70733;SDS011;58320;48.804;9.252;2023-12-28T07:35:35;4.20;;;2.20;;
70733;SDS011;58320;48.804;9.252;2023-12-28T07:38:01;4.38;;;2.20;;
70733;SDS011;58320;48.804;9.252;2023-12-28T07:40:27;4.63;;;2.17;;
70733;SDS011;58320;48.804;9.252;2023-12-28T07:42:52;5.00;;;2.57;;
70733;SDS011;58320;48.804;9.252;2023-12-28T07:45:18;5.00;;;1.90;;
70733;SDS011;58320;48.804;9.252;2023-12-28T07:47:48;4.10;;;1.80;;
70733;SDS011;58320;48.804;9.252;2023-12-28T07:50:16;3.53;;;2.10;;
70733;SDS011;58320;48.804;9.252;2023-12-28T07:52:42;4.10;;;2.00;;
70733;SDS011;58320;48.804;9.252;2023-12-28T07:55:08;6.00;;;2.13;;
70733;SDS011;58320;48.804;9.252;2023-12-28T07:57:34;4.38;;;2.50;;
70733;SDS011;58320;48.804;9.252;2023-12-28T08:00:01;5.15;;;2.35;;
70733;SDS011;58320;48.804;9.252;2023-12-28T08:02:27;5.63;;;2.60;;
70733;SDS011;58320;48.804;9.252;2023-12-28T08:04:53;5.10;;;2.00;;
70733;SDS011;58320;48.804;9.252;2023-12-28T08:07:18;4.68;;;2.65;;
70733;SDS011;58320;48.804;9.252;2023-12-28T08:09:44;4.83;;;2.43;;
70733;SDS011;58320;48.804;9.252;2023-12-28T08:12:10;5.80;;;1.98;;
70733;SDS011;58320;48.804;9.252;2023-12-28T08:14:35;5.77;;;2.27;;
70733;SDS011;58320;48.804;9.252;2023-12-28T08:17:01;4.47;;;2.58;;
70733;SDS011;58320;48.804;9.252;2023-12-28T08:19:28;4.37;;;2.07;;
70733;SDS011;58320;48.804;9.252;2023-12-28T08:21:53;5.10;;;2.30;;
70733;SDS011;58320;48.804;9.252;2023-12-28T08:24:19;4.60;;;2.30;;
70733;SDS011;58320;48.804;9.252;2023-12-28T08:26:45;4.68;;;2.50;;
70733;SDS011;58320;48.804;9.252;2023-12-28T08:29:10;4.40;;;2.70;;
70733;SDS011;58320;48.804;9.252;2023-12-28T08:31:36;4.32;;;2.20;;
70733;SDS011;58320;48.804;9.252;2023-12-28T08:34:02;5.93;;;2.53;;
70733;SDS011;58320;48.804;9.252;2023-12-28T08:36:28;7.37;;;3.20;;
70733;SDS011;58320;48.804;9.252;2023-12-28T08:38:54;6.50;;;2.67;;
70733;SDS011;58320;48.804;9.252;2023-12-28T08:41:20;5.30;;;2.33;;
70733;SDS011;58320;48.804;9.252;2023-12-28T08:43:49;4.55;;;2.47;;
70733;SDS011;58320;48.804;9.252;2023-12-28T08:46:15;6.40;;;3.03;;
70733;SDS011;58320;48.804;9.252;2023-12-28T08:48:41;5.68;;;3.33;;
70733;SDS011;58320;48.804;9.252;2023-12-28T08:51:09;6.88;;;3.13;;
70733;SDS011;58320;48.804;9.252;2023-12-28T08:53:35;7.63;;;3.60;;
70733;SDS011;58320;48.804;9.252;2023-12-28T08:56:01;7.23;;;3.13;;
70733;SDS011;58320;48.804;9.252;2023-12-28T08:58:27;7.63;;;3.45;;
70733;SDS011;58320;48.804;9.252;2023-12-28T09:00:53;8.25;;;3.85;;
70733;SDS011;58320;48.804;9.252;2023-12-28T09:03:18;8.07;;;3.03;;
70733;SDS011;58320;48.804;9.252;2023-12-28T09:05:44;8.18;;;3.40;;
70733;SDS011;58320;48.804;9.252;2023-12-28T09:08:10;5.67;;;2.87;;
70733;SDS011;58320;48.804;9.252;2023-12-28T09:10:35;6.72;;;3.38;;
70733;SDS011;58320;48.804;9.252;2023-12-28T09:13:03;7.13;;;3.10;;
70733;SDS011;58320;48.804;9.252;2023-12-28T09:15:30;5.35;;;3.00;;
70733;SDS011;58320;48.804;9.252;2023-12-28T09:17:57;6.93;;;3.20;;
70733;SDS011;58320;48.804;9.252;2023-12-28T09:20:22;6.33;;;3.33;;
70733;SDS011;58320;48.804;9.252;2023-12-28T09:22:48;5.72;;;3.08;;
70733;SDS011;58320;48.804;9.252;2023-12-28T09:25:18;4.93;;;2.55;;
70733;SDS011;58320;48.804;9.252;2023-12-28T09:27:44;5.77;;;2.90;;
70733;SDS011;58320;48.804;9.252;2023-12-28T09:30:10;5.97;;;2.67;;
70733;SDS011;58320;48.804;9.252;2023-12-28T09:32:36;6.18;;;3.30;;
70733;SDS011;58320;48.804;9.252;2023-12-28T09:35:02;6.10;;;2.53;;
70733;SDS011;58320;48.804;9.252;2023-12-28T09:37:28;6.10;;;3.20;;
70733;SDS011;58320;48.804;9.252;2023-12-28T09:39:54;11.63;;;3.65;;
70733;SDS011;58320;48.804;9.252;2023-12-28T09:42:42;6.07;;;3.67;;
70733;SDS011;58320;48.804;9.252;2023-12-28T09:45:15;7.70;;;3.80;;
70733;SDS011;58320;48.804;9.252;2023-12-28T09:47:41;9.52;;;4.50;;
70733;SDS011;58320;48.804;9.252;2023-12-28T09:50:08;8.45;;;4.93;;
70733;SDS011;58320;48.804;9.252;2023-12-28T09:52:36;7.90;;;4.00;;
70733;SDS011;58320;48.804;9.252;2023-12-28T09:55:02;7.25;;;3.45;;
70733;SDS011;58320;48.804;9.252;2023-12-28T09:57:30;10.63;;;4.30;;
70733;SDS011;58320;48.804;9.252;2023-12-28T09:59:56;6.97;;;3.77;;
70733;SDS011;58320;48.804;9.252;2023-12-28T10:02:22;6.85;;;3.60;;
70733;SDS011;58320;48.804;9.252;2023-12-28T10:04:48;10.00;;;4.25;;
70733;SDS011;58320;48.804;9.252;2023-12-28T10:07:14;7.40;;;4.07;;
70733;SDS011;58320;48.804;9.252;2023-12-28T10:09:39;6.45;;;3.78;;
70733;SDS011;58320;48.804;9.252;2023-12-28T10:12:05;11.80;;;4.53;;
70733;SDS011;58320;48.804;9.252;2023-12-28T10:14:32;7.18;;;3.50;;
70733;SDS011;58320;48.804;9.252;2023-12-28T10:16:59;6.40;;;3.95;;
70733;SDS011;58320;48.804;9.252;2023-12-28T10:19:25;6.53;;;3.97;;
70733;SDS011;58320;48.804;9.252;2023-12-28T10:21:50;9.73;;;4.90;;
70733;SDS011;58320;48.804;9.252;2023-12-28T10:24:16;10.23;;;4.80;;
70733;SDS011;58320;48.804;9.252;2023-12-28T10:26:42;9.63;;;4.80;;
70733;SDS011;58320;48.804;9.252;2023-12-28T10:29:07;7.38;;;4.13;;
70733;SDS011;58320;48.804;9.252;2023-12-28T10:31:33;9.75;;;4.88;;
70733;SDS011;58320;48.804;9.252;2023-12-28T10:33:59;9.43;;;4.20;;
70733;SDS011;58320;48.804;9.252;2023-12-28T10:36:27;8.07;;;3.80;;
70733;SDS011;58320;48.804;9.252;2023-12-28T10:38:53;7.55;;;3.90;;
70733;SDS011;58320;48.804;9.252;2023-12-28T10:41:20;5.70;;;3.53;;
70733;SDS011;58320;48.804;9.252;2023-12-28T10:43:56;7.22;;;3.40;;
70733;SDS011;58320;48.804;9.252;2023-12-28T10:46:33;6.67;;;3.30;;
70733;SDS011;58320;48.804;9.252;2023-12-28T10:49:09;7.00;;;3.30;;
70733;SDS011;58320;48.804;9.252;2023-12-28T10:51:40;6.57;;;3.65;;
70733;SDS011;58320;48.804;9.252;2023-12-28T10:54:23;7.85;;;3.53;;
70733;SDS011;58320;48.804;9.252;2023-12-28T10:57:08;5.70;;;2.97;;
70733;SDS011;58320;48.804;9.252;2023-12-28T10:59:48;4.60;;;2.23;;
70733;SDS011;58320;48.804;9.252;2023-12-28T11:02:28;5.85;;;2.58;;
70733;SDS011;58320;48.804;9.252;2023-12-28T11:05:03;7.00;;;3.30;;
70733;SDS011;58320;48.804;9.252;2023-12-28T11:07:31;5.22;;;3.03;;
70733;SDS011;58320;48.804;9.252;2023-12-28T11:10:02;6.45;;;3.42;;
70733;SDS011;58320;48.804;9.252;2023-12-28T11:12:30;5.80;;;2.80;;
70733;SDS011;58320;48.804;9.252;2023-12-28T11:14:56;5.07;;;2.75;;
70733;SDS011;58320;48.804;9.252;2023-12-28T11:17:22;5.82;;;2.80;;
70733;SDS011;58320;48.804;9.252;2023-12-28T11:19:54;6.97;;;3.08;;
70733;SDS011;58320;48.804;9.252;2023-12-28T11:22:21;5.90;;;3.10;;
70733;SDS011;58320;48.804;9.252;2023-12-28T11:24:48;4.63;;;2.70;;
70733;SDS011;58320;48.804;9.252;2023-12-28T11:27:18;6.22;;;3.03;;
70733;SDS011;58320;48.804;9.252;2023-12-28T11:29:44;5.10;;;2.70;;
70733;SDS011;58320;48.804;9.252;2023-12-28T11:32:10;4.63;;;2.25;;
70733;SDS011;58320;48.804;9.252;2023-12-28T11:34:36;5.63;;;2.70;;
70733;SDS011;58320;48.804;9.252;2023-12-28T11:37:08;5.03;;;2.47;;
70733;SDS011;58320;48.804;9.252;2023-12-28T11:39:43;7.05;;;2.95;;
70733;SDS011;58320;48.804;9.252;2023-12-28T11:42:09;5.50;;;2.80;;
70733;SDS011;58320;48.804;9.252;2023-12-28T11:44:42;4.50;;;2.40;;
70733;SDS011;58320;48.804;9.252;2023-12-28T11:49:42;4.47;;;2.22;;
70733;SDS011;58320;48.804;9.252;2023-12-28T11:52:21;4.72;;;2.08;;
70733;SDS011;58320;48.804;9.252;2023-12-28T11:55:06;4.22;;;1.98;;
70733;SDS011;58320;48.804;9.252;2023-12-28T11:57:32;3.87;;;2.00;;
70733;SDS011;58320;48.804;9.252;2023-12-28T12:00:01;5.40;;;2.28;;
70733;SDS011;58320;48.804;9.252;2023-12-28T12:02:27;4.20;;;1.88;;
70733;SDS011;58320;48.804;9.252;2023-12-28T12:04:53;5.25;;;2.00;;
70733;SDS011;58320;48.804;9.252;2023-12-28T12:07:23;5.30;;;2.10;;
70733;SDS011;58320;48.804;9.252;2023-12-28T12:09:54;5.20;;;2.30;;
70733;SDS011;58320;48.804;9.252;2023-12-28T12:12:24;4.80;;;2.22;;
70733;SDS011;58320;48.804;9.252;2023-12-28T12:14:50;4.88;;;2.10;;
70733;SDS011;58320;48.804;9.252;2023-12-28T12:17:17;6.13;;;2.50;;
70733;SDS011;58320;48.804;9.252;2023-12-28T12:19:43;5.27;;;2.77;;
70733;SDS011;58320;48.804;9.252;2023-12-28T12:22:12;6.47;;;3.05;;
70733;SDS011;58320;48.804;9.252;2023-12-28T12:24:39;5.43;;;2.85;;
70733;SDS011;58320;48.804;9.252;2023-12-28T12:27:06;7.05;;;2.90;;
70733;SDS011;58320;48.804;9.252;2023-12-28T12:29:32;5.27;;;2.93;;
70733;SDS011;58320;48.804;9.252;2023-12-28T12:31:57;5.97;;;3.15;;
70733;SDS011;58320;48.804;9.252;2023-12-28T12:34:23;6.15;;;2.88;;
70733;SDS011;58320;48.804;9.252;2023-12-28T12:36:49;5.97;;;3.00;;
70733;SDS011;58320;48.804;9.252;2023-12-28T12:39:19;6.95;;;3.10;;
70733;SDS011;58320;48.804;9.252;2023-12-28T12:41:45;5.22;;;2.90;;
70733;SDS011;58320;48.804;9.252;2023-12-28T12:44:12;3.80;;;1.93;;
70733;SDS011;58320;48.804;9.252;2023-12-28T12:46:38;4.75;;;1.60;;
70733;SDS011;58320;48.804;9.252;2023-12-28T12:49:05;4.53;;;1.93;;
70733;SDS011;58320;48.804;9.252;2023-12-28T12:51:31;4.32;;;1.83;;
70733;SDS011;58320;48.804;9.252;2023-12-28T12:53:57;3.92;;;1.80;;
70733;SDS011;58320;48.804;9.252;2023-12-28T12:56:28;4.20;;;2.10;;
70733;SDS011;58320;48.804;9.252;2023-12-28T12:58:55;4.43;;;1.83;;
70733;SDS011;58320;48.804;9.252;2023-12-28T13:01:22;5.82;;;2.22;;
70733;SDS011;58320;48.804;9.252;2023-12-28T13:03:49;4.50;;;2.10;;
70733;SDS011;58320;48.804;9.252;2023-12-28T13:06:15;4.93;;;2.20;;
70733;SDS011;58320;48.804;9.252;2023-12-28T13:08:41;5.47;;;2.80;;
70733;SDS011;58320;48.804;9.252;2023-12-28T13:11:07;5.20;;;2.75;;
70733;SDS011;58320;48.804;9.252;2023-12-28T13:13:33;5.43;;;2.63;;
70733;SDS011;58320;48.804;9.252;2023-12-28T13:16:00;4.63;;;2.60;;
70733;SDS011;58320;48.804;9.252;2023-12-28T13:18:29;4.30;;;2.42;;
70733;SDS011;58320;48.804;9.252;2023-12-28T13:20:54;7.23;;;3.13;;
70733;SDS011;58320;48.804;9.252;2023-12-28T13:23:20;6.80;;;3.47;;
70733;SDS011;58320;48.804;9.252;2023-12-28T13:25:46;7.97;;;3.53;;
70733;SDS011;58320;48.804;9.252;2023-12-28T13:28:12;6.85;;;3.58;;
70733;SDS011;58320;48.804;9.252;2023-12-28T13:30:38;6.80;;;3.83;;
70733;SDS011;58320;48.804;9.252;2023-12-28T13:33:04;7.77;;;3.73;;
70733;SDS011;58320;48.804;9.252;2023-12-28T13:35:30;7.78;;;3.58;;
70733;SDS011;58320;48.804;9.252;2023-12-28T13:38:00;5.63;;;3.03;;
70733;SDS011;58320;48.804;9.252;2023-12-28T13:40:28;5.80;;;3.55;;
70733;SDS011;58320;48.804;9.252;2023-12-28T13:42:55;8.40;;;3.67;;
70733;SDS011;58320;48.804;9.252;2023-12-28T13:45:20;6.27;;;3.90;;
70733;SDS011;58320;48.804;9.252;2023-12-28T13:47:46;9.20;;;4.15;;
70733;SDS011;58320;48.804;9.252;2023-12-28T13:50:12;8.33;;;3.70;;
70733;SDS011;58320;48.804;9.252;2023-12-28T13:52:37;6.85;;;4.05;;
70733;SDS011;58320;48.804;9.252;2023-12-28T13:55:04;7.83;;;3.37;;
70733;SDS011;58320;48.804;9.252;2023-12-28T13:57:30;9.10;;;3.30;;
70733;SDS011;58320;48.804;9.252;2023-12-28T13:59:56;6.68;;;3.92;;
70733;SDS011;58320;48.804;9.252;2023-12-28T14:02:25;7.10;;;3.23;;
70733;SDS011;58320;48.804;9.252;2023-12-28T14:04:54;5.43;;;2.90;;
70733;SDS011;58320;48.804;9.252;2023-12-28T14:07:21;5.75;;;2.85;;
70733;SDS011;58320;48.804;9.252;2023-12-28T14:09:47;5.35;;;2.72;;
70733;SDS011;58320;48.804;9.252;2023-12-28T14:12:13;4.53;;;2.53;;
70733;SDS011;58320;48.804;9.252;2023-12-28T14:14:39;5.28;;;2.83;;
70733;SDS011;58320;48.804;9.252;2023-12-28T14:17:04;4.70;;;2.70;;
70733;SDS011;58320;48.804;9.252;2023-12-28T14:19:30;4.28;;;2.25;;
70733;SDS011;58320;48.804;9.252;2023-12-28T14:21:57;3.50;;;1.70;;
70733;SDS011;58320;48.804;9.252;2023-12-28T14:24:23;4.13;;;1.70;;
70733;SDS011;58320;48.804;9.252;2023-12-28T14:26:50;3.60;;;1.60;;
70733;SDS011;58320;48.804;9.252;2023-12-28T14:29:19;3.42;;;1.70;;
70733;SDS011;58320;48.804;9.252;2023-12-28T14:31:46;4.97;;;1.60;;
70733;SDS011;58320;48.804;9.252;2023-12-28T14:34:12;4.35;;;2.00;;
70733;SDS011;58320;48.804;9.252;2023-12-28T14:36:38;3.50;;;1.70;;
70733;SDS011;58320;48.804;9.252;2023-12-28T14:39:06;4.75;;;1.52;;
70733;SDS011;58320;48.804;9.252;2023-12-28T14:41:33;5.72;;;1.85;;
70733;SDS011;58320;48.804;9.252;2023-12-28T14:44:00;3.22;;;1.58;;
70733;SDS011;58320;48.804;9.252;2023-12-28T14:46:26;3.40;;;1.60;;
70733;SDS011;58320;48.804;9.252;2023-12-28T14:48:52;3.40;;;1.40;;